createdAt,value
2023-03-11T00:00:16.476Z,99.99
2023-03-11T00:01:16.462Z,99.99
2023-03-11T00:02:16.493Z,99.99
2023-03-11T00:03:16.421Z,99.99
2023-03-11T00:04:16.426Z,99.99
2023-03-11T00:05:16.423Z,99.99
2023-03-11T00:06:16.552Z,99.99
2023-03-11T00:07:16.371Z,99.99
2023-03-11T00:08:16.381Z,99.99
2023-03-11T00:09:16.580Z,99.99
2023-03-11T00:10:16.372Z,99.99
2023-03-11T00:11:16.363Z,99.99
2023-03-11T00:12:16.381Z,99.99
2023-03-11T00:13:16.358Z,99.99
2023-03-11T00:14:16.324Z,99.99
2023-03-11T00:15:16.295Z,99.99
2023-03-11T00:16:16.332Z,99.99
2023-03-11T00:17:16.373Z,99.99
2023-03-11T00:18:16.297Z,99.99
2023-03-11T00:19:16.495Z,99.99
2023-03-11T00:20:16.388Z,99.99
2023-03-11T00:21:16.530Z,99.99
2023-03-11T00:22:16.524Z,99.99
2023-03-11T00:23:16.274Z,99.99
2023-03-11T00:24:16.213Z,99.99
2023-03-11T00:25:16.308Z,99.99
2023-03-11T00:26:16.331Z,99.99
2023-03-11T00:27:16.199Z,99.99
2023-03-11T00:28:16.223Z,99.99
2023-03-11T00:29:16.174Z,99.99
2023-03-11T00:30:16.158Z,99.99
2023-03-11T00:31:16.154Z,99.99
2023-03-11T00:32:16.181Z,99.99
2023-03-11T00:33:16.197Z,99.99
2023-03-11T00:34:16.129Z,99.99
2023-03-11T00:35:16.190Z,99.99
2023-03-11T00:36:16.097Z,99.99
2023-03-11T00:37:16.069Z,99.99
2023-03-11T00:38:16.108Z,99.99
2023-03-11T00:39:16.066Z,99.99
2023-03-11T00:40:16.060Z,99.99
2023-03-11T00:41:16.031Z,99.99
2023-03-11T00:42:16.028Z,99.99
2023-03-11T00:43:16.016Z,99.99
2023-03-11T00:44:16.046Z,99.99
2023-03-11T00:45:16.122Z,99.99
2023-03-11T00:46:16.194Z,99.99
2023-03-11T00:47:16.013Z,99.99
2023-03-11T00:48:15.979Z,99.99
2023-03-11T00:49:15.935Z,99.99
2023-03-11T00:50:15.968Z,99.99
2023-03-11T00:51:15.967Z,99.99
2023-03-11T00:52:15.935Z,99.99
2023-03-11T00:53:15.916Z,99.99
2023-03-11T00:54:15.955Z,99.99
2023-03-11T00:55:15.883Z,99.99
2023-03-11T00:56:15.920Z,99.99
2023-03-11T00:57:15.868Z,99.99
2023-03-11T00:58:15.875Z,99.99
2023-03-11T00:59:15.852Z,99.99
2023-03-11T01:00:15.879Z,99.99
2023-03-11T01:01:15.852Z,99.99
2023-03-11T01:02:15.840Z,99.99
2023-03-11T01:03:15.811Z,99.99
2023-03-11T01:04:15.875Z,99.99
2023-03-11T01:05:15.787Z,99.99
2023-03-11T01:06:15.811Z,99.99
2023-03-11T01:07:15.785Z,99.99
2023-03-11T01:08:15.839Z,99.99
2023-03-11T01:09:15.800Z,99.99
2023-03-11T01:10:15.761Z,99.99
2023-03-11T01:11:15.807Z,99.99
2023-03-11T01:12:15.749Z,99.99
2023-03-11T01:13:15.708Z,99.99
2023-03-11T01:14:15.747Z,99.99
2023-03-11T01:15:15.698Z,99.99
2023-03-11T01:16:15.843Z,99.99
2023-03-11T01:17:15.670Z,99.99
2023-03-11T01:18:15.677Z,99.99
2023-03-11T01:19:15.657Z,99.99
2023-03-11T01:20:15.660Z,99.99
2023-03-11T01:21:15.631Z,99.99
2023-03-11T01:22:15.642Z,99.99
2023-03-11T01:23:15.614Z,99.99
2023-03-11T01:24:15.736Z,99.99
2023-03-11T01:25:15.587Z,99.99
2023-03-11T01:26:15.633Z,99.99
2023-03-11T01:27:15.609Z,99.99
2023-03-11T01:28:15.616Z,99.99
2023-03-11T01:29:15.549Z,99.99
2023-03-11T01:30:15.625Z,99.99
2023-03-11T01:31:15.560Z,99.99
2023-03-11T01:32:15.821Z,99.99
2023-03-11T01:33:15.590Z,99.99
2023-03-11T01:34:15.508Z,99.99
2023-03-11T01:35:15.482Z,99.99
2023-03-11T01:36:15.518Z,99.99
2023-03-11T01:37:15.468Z,99.99
2023-03-11T01:38:15.487Z,99.99
2023-03-11T01:39:15.536Z,99.99
2023-03-11T01:40:15.452Z,99.99
2023-03-11T01:41:15.432Z,99.99
2023-03-11T01:42:15.418Z,99.99
2023-03-11T01:43:15.403Z,99.99
2023-03-11T01:44:15.452Z,99.99
2023-03-11T01:45:15.381Z,99.99
2023-03-11T01:46:15.460Z,99.99
2023-03-11T01:47:15.380Z,99.99
2023-03-11T01:48:15.421Z,99.99
2023-03-11T01:49:15.375Z,99.99
2023-03-11T01:50:15.435Z,99.99
2023-03-11T01:51:15.335Z,99.99
2023-03-11T01:52:15.326Z,99.99
2023-03-11T01:53:15.315Z,99.99
2023-03-11T01:54:15.312Z,99.99
2023-03-11T01:55:15.365Z,99.99
2023-03-11T01:56:15.282Z,99.99
2023-03-11T01:57:15.293Z,99.99
2023-03-11T01:58:15.281Z,99.99
2023-03-11T01:59:15.267Z,99.99
2023-03-11T02:00:15.254Z,99.99
2023-03-11T02:01:15.288Z,99.99
2023-03-11T02:02:15.245Z,99.99
2023-03-11T02:03:15.238Z,99.99
2023-03-11T02:04:15.225Z,99.99
2023-03-11T02:05:15.228Z,99.99
2023-03-11T02:06:15.189Z,99.99
2023-03-11T02:07:15.181Z,99.99
2023-03-11T02:08:15.200Z,99.99
2023-03-11T02:09:15.253Z,99.99
2023-03-11T02:10:15.238Z,99.99
2023-03-11T02:11:15.144Z,99.99
2023-03-11T02:12:15.159Z,99.99
2023-03-11T02:13:15.225Z,99.99
2023-03-11T02:14:15.123Z,99.99
2023-03-11T02:15:15.143Z,99.99
2023-03-11T02:19:31.425Z,99.99
2023-03-11T02:20:32.484Z,99.99
2023-03-11T02:21:32.382Z,99.99
2023-03-11T02:22:32.384Z,99.99
2023-03-11T02:23:32.370Z,99.99
2023-03-11T02:24:32.430Z,99.99
2023-03-11T02:25:32.337Z,99.99
2023-03-11T02:26:32.449Z,99.99
2023-03-11T02:27:32.532Z,99.99
2023-03-11T02:28:32.360Z,99.99
2023-03-11T02:30:38.195Z,99.99
2023-03-11T02:31:41.191Z,99.99
2023-03-11T02:32:39.231Z,99.99
2023-03-11T02:33:39.394Z,99.99
2023-03-11T02:34:39.070Z,99.99
2023-03-11T02:35:39.062Z,99.99
2023-03-11T02:36:39.073Z,99.99
2023-03-11T02:37:39.068Z,99.99
2023-03-11T02:38:39.140Z,99.99
2023-03-11T02:39:39.102Z,99.99
2023-03-11T02:40:39.053Z,99.99
2023-03-11T02:41:39.062Z,99.99
2023-03-11T02:42:39.068Z,99.99
2023-03-11T02:43:38.973Z,99.99
2023-03-11T02:44:39.004Z,99.99
2023-03-11T02:45:38.943Z,99.99
2023-03-11T02:46:39.019Z,99.99
2023-03-11T02:47:45.073Z,99.99
2023-03-11T02:48:38.944Z,99.99
2023-03-11T02:49:38.896Z,99.99
2023-03-11T02:50:39.075Z,99.99
2023-03-11T02:51:38.884Z,99.99
2023-03-11T02:52:38.873Z,99.99
2023-03-11T02:53:38.857Z,99.99
2023-03-11T02:54:38.855Z,99.99
2023-03-11T02:55:38.865Z,99.99
2023-03-11T02:56:38.818Z,99.99
2023-03-11T02:57:39.096Z,99.99
2023-03-11T02:58:38.816Z,99.99
2023-03-11T02:59:38.802Z,99.99
2023-03-11T03:00:38.815Z,99.99
2023-03-11T03:01:38.798Z,99.99
2023-03-11T03:02:38.788Z,99.99
2023-03-11T03:03:38.755Z,99.99
2023-03-11T03:04:38.734Z,99.99
2023-03-11T03:05:38.745Z,99.99
2023-03-11T03:06:38.739Z,99.99
2023-03-11T03:07:38.716Z,99.99
2023-03-11T03:08:38.719Z,99.99
2023-03-11T03:09:38.732Z,99.99
2023-03-11T03:10:38.682Z,99.99
2023-03-11T03:11:38.678Z,99.99
2023-03-11T03:12:38.671Z,99.99
2023-03-11T03:13:38.672Z,99.99
2023-03-11T03:14:38.640Z,99.99
2023-03-11T03:15:38.625Z,99.99
2023-03-11T03:16:38.888Z,99.99
2023-03-11T03:17:38.619Z,99.99
2023-03-11T03:18:38.619Z,99.99
2023-03-11T03:19:38.678Z,99.99
2023-03-11T03:20:38.563Z,99.99
2023-03-11T03:21:38.595Z,99.99
2023-03-11T03:22:38.620Z,99.99
2023-03-11T03:23:38.553Z,99.99
2023-03-11T03:24:38.524Z,99.99
2023-03-11T03:25:38.528Z,99.99
2023-03-11T03:26:38.514Z,99.99
2023-03-11T03:27:38.535Z,99.99
2023-03-11T03:28:38.485Z,99.99
2023-03-11T03:29:38.512Z,99.99
2023-03-11T03:30:38.496Z,99.99
2023-03-11T03:31:38.601Z,99.99
2023-03-11T03:32:38.589Z,99.99
2023-03-11T03:33:38.458Z,99.99
2023-03-11T03:34:38.426Z,99.99
2023-03-11T03:35:38.505Z,99.99
2023-03-11T03:36:38.442Z,99.99
2023-03-11T03:37:38.387Z,99.99
2023-03-11T03:38:38.404Z,99.99
2023-03-11T03:39:38.422Z,99.99
2023-03-11T03:40:38.381Z,99.99
2023-03-11T03:41:38.364Z,99.99
2023-03-11T03:42:38.472Z,99.99
2023-03-11T03:43:38.356Z,99.99
2023-03-11T03:44:38.340Z,99.99
2023-03-11T03:45:38.382Z,99.99
2023-03-11T03:46:38.339Z,99.99
2023-03-11T03:47:38.324Z,99.99
2023-03-11T03:48:38.314Z,99.99
2023-03-11T03:49:38.344Z,99.99
2023-03-11T03:50:38.271Z,99.99
2023-03-11T03:51:38.276Z,99.99
2023-03-11T03:52:38.242Z,99.99
2023-03-11T03:53:38.264Z,99.99
2023-03-11T03:54:38.237Z,99.99
2023-03-11T03:55:38.246Z,99.99
2023-03-11T03:56:38.222Z,99.99
2023-03-11T03:57:38.207Z,99.99
2023-03-11T03:58:38.196Z,99.99
2023-03-11T03:59:38.179Z,99.99
2023-03-11T04:00:38.177Z,99.99
2023-03-11T04:01:38.426Z,99.99
2023-03-11T04:02:38.220Z,99.99
2023-03-11T04:03:38.291Z,99.99
2023-03-11T04:04:38.128Z,99.99
2023-03-11T04:05:38.124Z,99.99
2023-03-11T04:06:38.135Z,99.99
2023-03-11T04:07:38.099Z,99.99
2023-03-11T04:08:38.112Z,99.99
2023-03-11T04:09:38.140Z,99.99
2023-03-11T04:10:38.102Z,99.99
2023-03-11T04:11:38.072Z,99.99
2023-03-11T04:12:38.069Z,99.99
2023-03-11T04:13:38.048Z,99.99
2023-03-11T04:14:38.044Z,99.99
2023-03-11T04:15:38.040Z,99.99
2023-03-11T04:16:38.112Z,99.99
2023-03-11T04:17:38.002Z,99.99
2023-03-11T04:18:37.985Z,99.99
2023-03-11T04:19:37.997Z,99.99
2023-03-11T04:20:37.984Z,99.99
2023-03-11T04:21:37.994Z,99.99
2023-03-11T04:22:37.951Z,99.99
2023-03-11T04:23:37.944Z,99.99
2023-03-11T04:24:37.926Z,99.99
2023-03-11T04:25:37.950Z,99.99
2023-03-11T04:26:37.980Z,99.99
2023-03-11T04:27:37.950Z,99.99
2023-03-11T04:28:37.870Z,99.99
2023-03-11T04:29:37.878Z,99.99
2023-03-11T04:30:37.887Z,99.99
2023-03-11T04:31:37.853Z,99.99
2023-03-11T04:32:37.870Z,99.99
2023-03-11T04:33:37.864Z,99.99
2023-03-11T04:34:37.844Z,99.99
2023-03-11T04:35:37.827Z,99.99
2023-03-11T04:36:37.787Z,99.99
2023-03-11T04:37:37.781Z,99.99
2023-03-11T04:38:37.776Z,99.99
2023-03-11T04:39:37.787Z,99.99
2023-03-11T04:40:37.748Z,99.99
2023-03-11T04:41:37.753Z,99.99
2023-03-11T04:42:37.725Z,99.99
2023-03-11T04:43:37.728Z,99.99
2023-03-11T04:44:37.770Z,99.99
2023-03-11T04:45:37.702Z,99.99
2023-03-11T04:46:42.930Z,99.99
2023-03-11T04:47:37.686Z,99.99
2023-03-11T04:48:37.667Z,99.99
2023-03-11T04:49:37.682Z,99.99
2023-03-11T04:50:37.692Z,99.99
2023-03-11T04:51:37.683Z,99.99
2023-03-11T04:52:37.625Z,99.99
2023-03-11T04:53:37.637Z,99.99
2023-03-11T04:54:37.610Z,99.99
2023-03-11T04:55:37.639Z,99.99
2023-03-11T04:56:37.581Z,99.99
2023-03-11T04:57:37.573Z,99.99
2023-03-11T04:58:37.573Z,99.99
2023-03-11T04:59:37.576Z,99.99
2023-03-11T05:00:37.542Z,99.99
2023-03-11T05:01:37.785Z,99.99
2023-03-11T05:02:37.524Z,99.99
2023-03-11T05:03:37.527Z,99.99
2023-03-11T05:04:37.562Z,99.99
2023-03-11T05:05:40.402Z,99.99
2023-03-11T05:06:37.499Z,99.99
2023-03-11T05:07:37.486Z,99.99
2023-03-11T05:08:37.460Z,99.99
2023-03-11T05:09:37.465Z,99.99
2023-03-11T05:10:37.447Z,99.99
2023-03-11T05:11:37.457Z,99.99
2023-03-11T05:12:37.434Z,99.99
2023-03-11T05:13:37.414Z,99.99
2023-03-11T05:14:37.412Z,99.99
2023-03-11T05:15:37.525Z,99.99
2023-03-11T05:16:37.391Z,99.99
2023-03-11T05:17:37.403Z,99.99
2023-03-11T05:18:37.419Z,99.99
2023-03-11T05:19:37.371Z,99.99
2023-03-11T05:20:37.350Z,99.99
2023-03-11T05:21:37.335Z,99.99
2023-03-11T05:22:37.318Z,99.99
2023-03-11T05:23:37.900Z,99.99
2023-03-11T05:24:37.274Z,99.99
2023-03-11T05:25:37.310Z,99.99
2023-03-11T05:26:37.288Z,99.99
2023-03-11T05:27:37.264Z,99.99
2023-03-11T05:28:37.209Z,99.99
2023-03-11T05:29:37.249Z,99.99
2023-03-11T05:30:39.899Z,99.99
2023-03-11T05:31:37.211Z,99.99
2023-03-11T05:32:37.265Z,99.99
2023-03-11T05:33:37.157Z,99.99
2023-03-11T05:34:37.135Z,99.99
2023-03-11T05:35:37.301Z,99.99
2023-03-11T05:36:37.133Z,99.99
2023-03-11T05:37:37.119Z,99.99
2023-03-11T05:38:37.123Z,99.99
2023-03-11T05:39:37.111Z,99.99
2023-03-11T05:40:37.192Z,99.99
2023-03-11T05:41:37.171Z,99.99
2023-03-11T05:42:37.373Z,99.99
2023-03-11T05:43:37.138Z,99.99
2023-03-11T05:44:37.069Z,99.99
2023-03-11T05:45:37.076Z,99.99
2023-03-11T05:46:37.234Z,99.99
2023-03-11T05:47:37.033Z,99.99
2023-03-11T05:48:37.003Z,99.99
2023-03-11T05:49:37.078Z,99.99
2023-03-11T05:50:37.017Z,99.99
2023-03-11T05:51:36.982Z,99.99
2023-03-11T05:52:37.050Z,99.99
2023-03-11T05:53:36.976Z,99.99
2023-03-11T05:54:37.037Z,99.99
2023-03-11T05:55:36.986Z,99.99
2023-03-11T05:56:36.963Z,99.99
2023-03-11T05:57:36.924Z,99.99
2023-03-11T05:58:36.902Z,99.99
2023-03-11T05:59:36.937Z,99.99
2023-03-11T06:00:36.882Z,99.99
2023-03-11T06:01:36.882Z,99.99
2023-03-11T06:02:36.865Z,99.99
2023-03-11T06:03:36.884Z,99.99
2023-03-11T06:04:37.036Z,99.99
2023-03-11T06:05:36.844Z,99.99
2023-03-11T06:06:36.865Z,99.99
2023-03-11T06:07:36.819Z,99.99
2023-03-11T06:08:36.800Z,99.99
2023-03-11T06:09:36.846Z,99.99
2023-03-11T06:10:38.473Z,99.99
2023-03-11T06:11:36.801Z,99.99
2023-03-11T06:12:36.964Z,99.99
2023-03-11T06:13:36.771Z,99.99
2023-03-11T06:14:55.420Z,99.99
2023-03-11T06:15:36.755Z,99.99
2023-03-11T06:16:36.817Z,99.99
2023-03-11T06:17:36.744Z,99.99
2023-03-11T06:18:36.713Z,99.99
2023-03-11T06:19:36.803Z,99.99
2023-03-11T06:20:36.672Z,99.99
2023-03-11T06:22:12.421Z,99.99
2023-03-11T06:22:40.378Z,99.99
2023-03-11T06:23:36.870Z,99.99
2023-03-11T06:26:16.827Z,99.99
2023-03-11T06:27:17.800Z,99.99
2023-03-11T06:28:17.960Z,99.99
2023-03-11T06:29:17.835Z,99.99
2023-03-11T06:30:17.812Z,99.99
2023-03-11T06:31:17.816Z,99.99
2023-03-11T06:32:17.829Z,99.99
2023-03-11T06:33:17.769Z,99.99
2023-03-11T06:34:17.746Z,99.99
2023-03-11T06:35:17.759Z,99.99
2023-03-11T06:36:17.718Z,99.99
2023-03-11T06:37:17.722Z,99.99
2023-03-11T06:38:17.747Z,99.99
2023-03-11T06:39:17.756Z,99.99
2023-03-11T06:40:17.711Z,99.99
2023-03-11T06:41:17.666Z,99.99
2023-03-11T06:42:17.660Z,99.99
2023-03-11T06:43:17.674Z,99.99
2023-03-11T06:44:17.652Z,99.99
2023-03-11T06:45:20.470Z,99.99
2023-03-11T06:46:17.742Z,99.99
2023-03-11T06:47:17.605Z,99.99
2023-03-11T06:48:17.596Z,99.99
2023-03-11T06:49:17.602Z,99.99
2023-03-11T06:50:17.635Z,99.99
2023-03-11T06:51:17.645Z,99.99
2023-03-11T06:52:17.650Z,99.99
2023-03-11T06:53:17.549Z,99.99
2023-03-11T06:54:17.541Z,99.99
2023-03-11T06:55:17.541Z,99.99
2023-03-11T06:56:17.515Z,99.99
2023-03-11T06:57:17.583Z,99.99
2023-03-11T06:58:17.520Z,99.99
2023-03-11T06:59:17.495Z,99.99
2023-03-11T07:00:17.533Z,99.99
2023-03-11T07:01:17.588Z,99.99
2023-03-11T07:02:17.530Z,99.99
2023-03-11T07:03:17.490Z,99.99
2023-03-11T07:04:17.560Z,99.99
2023-03-11T07:05:17.524Z,99.99
2023-03-11T07:06:17.408Z,99.99
2023-03-11T07:07:17.609Z,99.99
2023-03-11T07:08:17.411Z,99.99
2023-03-11T07:09:17.380Z,99.99
2023-03-11T07:10:17.404Z,99.99
2023-03-11T07:11:17.744Z,99.99
2023-03-11T07:12:17.363Z,99.99
2023-03-11T07:13:17.979Z,99.99
2023-03-11T07:14:17.324Z,99.99
2023-03-11T07:15:17.719Z,99.99
2023-03-11T07:16:17.705Z,99.99
2023-03-11T07:17:17.759Z,99.99
2023-03-11T07:18:17.666Z,99.99
2023-03-11T07:19:17.864Z,99.99
2023-03-11T07:20:17.754Z,99.99
2023-03-11T07:21:17.279Z,99.99
2023-03-11T07:22:17.836Z,99.99
2023-03-11T07:23:17.269Z,99.99
2023-03-11T07:24:17.785Z,99.99
2023-03-11T07:25:17.359Z,99.99
2023-03-11T07:26:17.269Z,99.99
2023-03-11T07:27:17.755Z,99.99
2023-03-11T07:28:17.615Z,99.99
2023-03-11T07:29:17.280Z,99.99
2023-03-11T07:30:17.223Z,99.99
2023-03-11T07:31:17.222Z,99.99
2023-03-11T07:32:17.888Z,99.99
2023-03-11T07:33:17.140Z,99.99
2023-03-11T07:34:17.276Z,99.99
2023-03-11T07:35:17.691Z,99.99
2023-03-11T07:36:17.105Z,99.99
2023-03-11T07:37:17.775Z,99.99
2023-03-11T07:38:17.095Z,99.99
2023-03-11T07:39:17.699Z,99.99
2023-03-11T07:40:17.059Z,99.99
2023-03-11T07:41:17.106Z,99.99
2023-03-11T07:42:17.406Z,99.99
2023-03-11T07:43:17.458Z,99.99
2023-03-11T07:44:17.130Z,99.99
2023-03-11T07:45:16.989Z,99.99
2023-03-11T07:46:17.627Z,99.93
2023-03-11T07:47:17.097Z,99.83
2023-03-11T07:48:17.114Z,99.52
2023-03-11T07:49:17.005Z,99.16
2023-03-11T07:50:16.977Z,98.43
2023-03-11T07:51:16.955Z,98.01
2023-03-11T07:52:17.021Z,97.38
2023-03-11T07:53:16.929Z,97.07
2023-03-11T07:54:16.927Z,96.86
2023-03-11T07:55:16.926Z,97.70
2023-03-11T07:56:16.923Z,97.91
2023-03-11T07:57:16.965Z,98.18
2023-03-11T07:58:16.897Z,98.07
2023-03-11T07:59:16.891Z,97.24
2023-03-11T08:00:16.926Z,96.82
2023-03-11T08:01:17.149Z,96.25
2023-03-11T08:02:16.890Z,96.15
2023-03-11T08:03:16.835Z,95.62
2023-03-11T08:04:16.890Z,94.79
2023-03-11T08:05:16.811Z,93.54
2023-03-11T08:06:16.824Z,92.91
2023-03-11T08:07:16.916Z,92.81
2023-03-11T08:08:16.787Z,93.12
2023-03-11T08:09:17.044Z,92.71
2023-03-11T08:10:16.819Z,92.50
2023-03-11T08:11:16.753Z,92.81
2023-03-11T08:12:16.747Z,93.18
2023-03-11T08:13:16.706Z,93.18
2023-03-11T08:14:16.707Z,92.14
2023-03-11T08:15:16.716Z,92.00
2023-03-11T08:16:16.698Z,91.72
2023-03-11T08:17:16.672Z,91.00
2023-03-11T08:18:17.084Z,91.37
2023-03-11T08:19:16.651Z,91.47
2023-03-11T08:20:16.692Z,91.78
2023-03-11T08:21:16.622Z,91.64
2023-03-11T08:22:16.625Z,90.60
2023-03-11T08:23:16.641Z,90.91
2023-03-11T08:24:16.612Z,90.39
2023-03-11T08:25:16.599Z,90.19
2023-03-11T08:26:16.850Z,90.14
2023-03-11T08:27:16.590Z,90.25
2023-03-11T08:28:16.718Z,88.68
2023-03-11T08:29:16.876Z,88.64
2023-03-11T08:30:16.603Z,89.27
2023-03-11T08:31:16.651Z,89.48
2023-03-11T08:32:16.623Z,88.85
2023-03-11T08:33:16.507Z,88.23
2023-03-11T08:34:16.505Z,88.89
2023-03-11T08:35:16.490Z,88.79
2023-03-11T08:36:16.586Z,87.92
2023-03-11T08:37:16.463Z,87.71
2023-03-11T08:38:16.450Z,86.40
2023-03-11T08:39:16.564Z,87.33
2023-03-11T08:40:16.437Z,86.57
2023-03-11T08:41:16.479Z,87.25
2023-03-11T08:42:16.605Z,87.92
2023-03-11T08:43:16.526Z,88.29
2023-03-11T08:44:16.396Z,87.73
2023-03-11T08:45:16.540Z,87.52
2023-03-11T08:46:16.397Z,87.11
2023-03-11T08:47:16.748Z,85.93
2023-03-11T08:48:16.363Z,86.24
2023-03-11T08:49:16.339Z,84.68
2023-03-11T08:50:16.408Z,85.20
2023-03-11T08:51:16.321Z,85.99
2023-03-11T08:52:16.326Z,87.19
2023-03-11T08:53:16.586Z,85.43
2023-03-11T08:54:16.286Z,84.08
2023-03-11T08:55:16.276Z,85.22
2023-03-11T08:56:16.288Z,82.42
2023-03-11T08:57:16.287Z,83.42
2023-03-11T08:58:16.258Z,81.56
2023-03-11T08:59:16.268Z,81.45
2023-03-11T09:00:16.225Z,80.10
2023-03-11T09:01:16.203Z,80.62
2023-03-11T09:02:16.222Z,81.10
2023-03-11T09:03:16.221Z,80.47
2023-03-11T09:04:16.198Z,79.96
2023-03-11T09:05:16.159Z,80.58
2023-03-11T09:06:16.219Z,80.16
2023-03-11T09:07:16.165Z,81.82
2023-03-11T09:08:16.168Z,82.34
2023-03-11T09:09:16.131Z,79.65
2023-03-11T09:10:16.127Z,79.90
2023-03-11T09:11:16.585Z,79.38
2023-03-11T09:12:16.117Z,81.76
2023-03-11T09:13:16.069Z,81.93
2023-03-11T09:14:16.094Z,80.99
2023-03-11T09:15:16.102Z,79.96
2023-03-11T09:16:16.302Z,78.92
2023-03-11T09:17:16.041Z,80.68
2023-03-11T09:18:16.041Z,79.61
2023-03-11T09:19:16.084Z,79.71
2023-03-11T09:20:16.041Z,75.36
2023-03-11T09:21:16.000Z,76.15
2023-03-11T09:22:16.041Z,78.54
2023-03-11T09:23:15.993Z,78.19
2023-03-11T09:24:15.982Z,79.13
2023-03-11T09:25:15.984Z,77.74
2023-03-11T09:26:16.005Z,76.09
2023-03-11T09:27:15.954Z,73.91
2023-03-11T09:28:16.009Z,74.12
2023-03-11T09:29:15.911Z,73.50
2023-03-11T09:30:15.976Z,74.29
2023-03-11T09:31:16.047Z,73.36
2023-03-11T09:32:15.921Z,73.74
2023-03-11T09:33:15.886Z,73.12
2023-03-11T09:34:16.326Z,72.91
2023-03-11T09:35:16.122Z,71.47
2023-03-11T09:36:15.865Z,71.50
2023-03-11T09:37:15.838Z,73.39
2023-03-11T09:38:15.876Z,75.32
2023-03-11T09:39:15.828Z,73.50
2023-03-11T09:40:16.113Z,72.02
2023-03-11T09:41:15.807Z,75.19
2023-03-11T09:42:15.803Z,74.36
2023-03-11T09:43:15.771Z,71.36
2023-03-11T09:44:15.828Z,70.92
2023-03-11T09:45:15.787Z,73.43
2023-03-11T09:46:15.791Z,71.57
2023-03-11T09:47:15.754Z,71.26
2023-03-11T09:48:15.734Z,73.26
2023-03-11T09:49:15.722Z,68.51
2023-03-11T09:50:15.760Z,67.00
2023-03-11T09:51:15.787Z,67.00
2023-03-11T09:52:15.705Z,66.97
2023-03-11T09:53:15.681Z,67.69
2023-03-11T09:54:15.709Z,67.35
2023-03-11T09:55:15.730Z,67.86
2023-03-11T09:56:15.649Z,67.76
2023-03-11T09:57:15.626Z,69.17
2023-03-11T09:58:15.625Z,66.15
2023-03-11T09:59:15.596Z,67.25
2023-03-11T10:00:15.603Z,65.92
2023-03-11T10:01:15.610Z,62.85
2023-03-11T10:02:15.715Z,63.21
2023-03-11T10:03:15.741Z,64.07
2023-03-11T10:04:15.546Z,62.40
2023-03-11T10:05:15.538Z,60.86
2023-03-11T10:06:15.524Z,61.24
2023-03-11T10:07:15.564Z,60.08
2023-03-11T10:08:15.559Z,59.54
2023-03-11T10:09:15.488Z,59.85
2023-03-11T10:10:15.714Z,59.31
2023-03-11T10:11:15.590Z,59.31
2023-03-11T10:12:15.490Z,57.28
2023-03-11T10:13:15.456Z,57.59
2023-03-11T10:14:15.461Z,60.58
2023-03-11T10:15:15.433Z,58.07
2023-03-11T10:16:15.459Z,56.20
2023-03-11T10:17:15.438Z,54.95
2023-03-11T10:18:15.400Z,52.70
2023-03-11T10:19:15.418Z,54.39
2023-03-11T10:20:15.385Z,53.16
2023-03-11T10:21:15.381Z,50.78
2023-03-11T10:22:15.372Z,49.33
2023-03-11T10:23:15.379Z,49.21
2023-03-11T10:24:15.387Z,48.61
2023-03-11T10:25:15.337Z,49.96
2023-03-11T10:26:15.311Z,48.46
2023-03-11T10:27:15.313Z,51.12
2023-03-11T10:28:15.401Z,50.78
2023-03-11T10:29:15.288Z,53.42
2023-03-11T10:30:15.262Z,48.74
2023-03-11T10:31:15.278Z,49.27
2023-03-11T10:32:15.344Z,50.85
2023-03-11T10:33:15.262Z,53.88
2023-03-11T10:34:15.306Z,50.76
2023-03-11T10:35:15.258Z,48.08
2023-03-11T10:36:15.200Z,51.63
2023-03-11T10:37:15.215Z,49.44
2023-03-11T10:38:15.181Z,46.66
2023-03-11T10:39:15.195Z,47.14
2023-03-11T10:40:15.157Z,46.69
2023-03-11T10:41:15.155Z,44.63
2023-03-11T10:42:15.199Z,46.67
2023-03-11T10:43:15.164Z,44.85
2023-03-11T10:44:15.169Z,47.75
2023-03-11T10:45:15.138Z,45.32
2023-03-11T10:46:15.168Z,49.04
2023-03-11T10:47:15.084Z,45.94
2023-03-11T10:48:15.142Z,43.57
2023-03-11T10:49:15.081Z,45.10
2023-03-11T10:50:15.079Z,44.10
2023-03-11T10:51:15.048Z,44.53
2023-03-11T10:52:15.037Z,47.81
2023-03-11T10:53:15.041Z,45.83
2023-03-11T10:54:14.995Z,48.89
2023-03-11T10:55:15.001Z,45.65
2023-03-11T10:56:16.128Z,44.14
2023-03-11T10:57:14.987Z,46.56
2023-03-11T10:58:14.964Z,45.79
2023-03-11T10:59:14.963Z,47.85
2023-03-11T11:00:14.949Z,48.79
2023-03-11T11:01:14.948Z,48.23
2023-03-11T11:02:14.911Z,46.74
2023-03-11T11:03:14.978Z,48.15
2023-03-11T11:04:14.940Z,49.51
2023-03-11T11:05:14.972Z,47.11
2023-03-11T11:06:14.884Z,46.57
2023-03-11T11:07:14.875Z,48.10
2023-03-11T11:08:14.853Z,47.29
2023-03-11T11:09:14.867Z,46.55
2023-03-11T11:10:14.848Z,45.96
2023-03-11T11:11:14.848Z,49.92
2023-03-11T11:12:14.806Z,49.18
2023-03-11T11:13:14.823Z,47.86
2023-03-11T11:14:14.801Z,48.96
2023-03-11T11:15:14.789Z,47.14
2023-03-11T11:16:14.849Z,47.32
2023-03-11T11:17:14.765Z,45.67
2023-03-11T11:18:14.783Z,45.22
2023-03-11T11:19:14.742Z,44.06
2023-03-11T11:20:14.738Z,47.09
2023-03-11T11:21:14.761Z,46.00
2023-03-11T11:22:14.729Z,46.97
2023-03-11T11:23:14.790Z,44.08
2023-03-11T11:24:14.684Z,45.83
2023-03-11T11:25:14.702Z,45.61
2023-03-11T11:26:14.663Z,47.80
2023-03-11T11:27:14.656Z,47.81
2023-03-11T11:28:14.669Z,46.77
2023-03-11T11:29:14.637Z,45.42
2023-03-11T11:30:14.613Z,43.87
2023-03-11T11:31:14.663Z,45.89
2023-03-11T11:32:14.628Z,41.43
2023-03-11T11:33:14.601Z,43.90
2023-03-11T11:34:14.605Z,42.68
2023-03-11T11:35:14.577Z,44.28
2023-03-11T11:36:14.554Z,44.49
2023-03-11T11:37:14.597Z,44.26
2023-03-11T11:38:14.530Z,44.38
2023-03-11T11:39:14.532Z,42.68
2023-03-11T11:40:14.535Z,44.69
2023-03-11T11:41:14.525Z,43.47
2023-03-11T11:42:14.524Z,43.26
2023-03-11T11:43:14.541Z,44.71
2023-03-11T11:44:14.466Z,41.96
2023-03-11T11:45:14.472Z,41.11
2023-03-11T11:46:14.535Z,42.19
2023-03-11T11:47:14.445Z,43.43
2023-03-11T11:48:14.455Z,39.58
2023-03-11T11:49:14.481Z,45.15
2023-03-11T11:50:14.404Z,42.71
2023-03-11T11:51:14.424Z,41.80
2023-03-11T11:52:14.396Z,44.69
2023-03-11T11:53:14.427Z,44.28
2023-03-11T11:54:14.367Z,44.20
2023-03-11T11:55:14.402Z,46.29
2023-03-11T11:56:14.357Z,47.94
2023-03-11T11:57:14.400Z,52.39
2023-03-11T11:58:14.360Z,47.80
2023-03-11T11:59:14.325Z,46.88
2023-03-11T12:00:14.311Z,46.51
2023-03-11T12:01:14.299Z,48.48
2023-03-11T12:02:14.391Z,50.32
2023-03-11T12:03:14.415Z,47.35
2023-03-11T12:04:14.265Z,47.50
2023-03-11T12:05:14.382Z,48.88
2023-03-11T12:06:14.238Z,48.59
2023-03-11T12:07:14.237Z,46.13
2023-03-11T12:08:14.234Z,47.56
2023-03-11T12:09:14.238Z,46.91
2023-03-11T12:10:22.761Z,47.31
2023-03-11T12:11:14.205Z,48.03
2023-03-11T12:12:14.162Z,48.69
2023-03-11T12:13:14.173Z,48.36
2023-03-11T12:14:14.312Z,50.04
2023-03-11T12:15:14.168Z,50.22
2023-03-11T12:16:14.205Z,49.07
2023-03-11T12:17:14.153Z,47.76
2023-03-11T12:18:14.106Z,47.44
2023-03-11T12:19:14.494Z,46.82
2023-03-11T12:20:14.131Z,47.31
2023-03-11T12:21:14.089Z,48.00
2023-03-11T12:22:14.082Z,47.83
2023-03-11T12:23:14.066Z,46.41
2023-03-11T12:24:14.076Z,46.15
2023-03-11T12:25:14.056Z,44.26
2023-03-11T12:26:14.029Z,45.08
2023-03-11T12:27:14.032Z,45.73
2023-03-11T12:28:13.991Z,44.35
2023-03-11T12:29:16.072Z,46.21
2023-03-11T12:30:14.100Z,47.47
2023-03-11T12:31:14.186Z,45.96
2023-03-11T12:32:14.041Z,45.69
2023-03-11T12:33:13.975Z,44.75
2023-03-11T12:34:13.947Z,42.63
2023-03-11T12:35:13.934Z,44.12
2023-03-11T12:36:13.956Z,47.20
2023-03-11T12:37:13.965Z,46.88
2023-03-11T12:38:13.927Z,45.86
2023-03-11T12:39:13.888Z,45.84
2023-03-11T12:40:13.886Z,46.89
2023-03-11T12:41:13.882Z,44.93
2023-03-11T12:42:13.901Z,43.91
2023-03-11T12:43:13.875Z,44.12
2023-03-11T12:44:13.834Z,46.53
2023-03-11T12:45:13.847Z,47.31
2023-03-11T12:46:13.848Z,48.49
2023-03-11T12:47:13.822Z,48.25
2023-03-11T12:48:13.788Z,49.98
2023-03-11T12:49:13.797Z,46.99
2023-03-11T12:50:13.773Z,45.78
2023-03-11T12:51:13.784Z,45.86
2023-03-11T12:52:13.838Z,44.65
2023-03-11T12:53:13.795Z,44.00
2023-03-11T12:54:13.726Z,38.85
2023-03-11T12:55:13.742Z,38.46
2023-03-11T12:56:13.711Z,39.44
2023-03-11T12:57:14.038Z,39.11
2023-03-11T12:58:13.785Z,40.14